createdAt,value
2023-05-09T00:02:17.112Z,12.40
2023-05-09T00:04:44.273Z,12.40
2023-05-09T00:07:11.194Z,12.30
2023-05-09T00:09:38.105Z,12.30
2023-05-09T00:12:05.337Z,12.20
2023-05-09T00:14:33.536Z,12.20
2023-05-09T00:17:00.736Z,12.20
2023-05-09T00:19:27.524Z,12.20
2023-05-09T00:21:54.418Z,12.20
2023-05-09T00:24:21.248Z,12.20
2023-05-09T00:26:48.031Z,12.20
2023-05-09T00:29:14.818Z,12.20
2023-05-09T00:31:41.561Z,12.20
2023-05-09T00:34:11.775Z,12.20
2023-05-09T00:36:41.712Z,12.30
2023-05-09T00:39:08.444Z,12.30
2023-05-09T00:41:35.415Z,12.30
2023-05-09T00:44:02.134Z,12.40
2023-05-09T00:46:28.960Z,12.40
2023-05-09T00:48:56.448Z,12.40
2023-05-09T00:51:24.136Z,12.50
2023-05-09T00:53:50.898Z,12.50
2023-05-09T00:56:17.959Z,12.60
2023-05-09T00:58:45.244Z,12.60
2023-05-09T01:01:12.060Z,12.60
2023-05-09T01:03:41.181Z,12.60
2023-05-09T01:06:23.819Z,12.60
2023-05-09T01:09:08.936Z,12.60
2023-05-09T01:11:38.673Z,12.60
2023-05-09T01:14:44.705Z,12.60
2023-05-09T01:17:23.714Z,12.50
2023-05-09T01:20:02.563Z,12.60
2023-05-09T01:22:35.946Z,12.50
2023-05-09T01:25:08.113Z,12.60
2023-05-09T01:27:44.415Z,12.60
2023-05-09T01:30:13.454Z,12.60
2023-05-09T01:32:43.657Z,12.70
2023-05-09T01:35:14.559Z,12.60
2023-05-09T01:37:43.856Z,12.60
2023-05-09T01:40:14.757Z,12.60
2023-05-09T01:42:45.453Z,12.60
2023-05-09T01:45:14.294Z,12.60
2023-05-09T01:47:42.566Z,12.60
2023-05-09T01:50:11.662Z,12.50
2023-05-09T01:52:40.669Z,12.50
2023-05-09T01:55:08.948Z,12.40
2023-05-09T01:57:38.392Z,12.30
2023-05-09T02:00:07.898Z,12.20
2023-05-09T02:02:40.485Z,12.10
2023-05-09T02:05:10.577Z,12.00
2023-05-09T02:07:38.900Z,12.00
2023-05-09T02:10:09.067Z,11.90
2023-05-09T02:12:37.621Z,11.90
2023-05-09T02:15:06.030Z,11.80
2023-05-09T02:17:33.078Z,11.70
2023-05-09T02:19:59.869Z,11.60
2023-05-09T02:22:27.148Z,11.60
2023-05-09T02:24:53.940Z,11.50
2023-05-09T02:27:21.612Z,11.40
2023-05-09T02:29:51.455Z,11.40
2023-05-09T02:32:25.784Z,11.30
2023-05-09T02:34:54.070Z,11.30
2023-05-09T02:37:21.568Z,11.20
2023-05-09T02:39:48.649Z,11.20
2023-05-09T02:42:22.204Z,11.10
2023-05-09T02:44:48.979Z,11.10
2023-05-09T02:47:16.024Z,11.10
2023-05-09T02:49:43.000Z,11.00
2023-05-09T02:52:10.958Z,11.00
2023-05-09T02:54:38.556Z,10.90
2023-05-09T02:57:05.670Z,10.90
2023-05-09T02:59:32.514Z,10.80
2023-05-09T03:02:02.122Z,10.80
2023-05-09T03:04:30.519Z,10.70
2023-05-09T03:06:57.443Z,10.70
2023-05-09T03:09:28.059Z,10.60
2023-05-09T03:11:56.443Z,10.60
2023-05-09T03:14:23.851Z,10.50
2023-05-09T03:16:50.712Z,10.50
2023-05-09T03:19:29.100Z,10.40
2023-05-09T03:21:56.141Z,10.40
2023-05-09T03:24:23.225Z,10.40
2023-05-09T03:26:50.316Z,10.40
2023-05-09T03:29:17.238Z,10.30
2023-05-09T03:31:44.209Z,10.30
2023-05-09T03:34:15.440Z,10.30
2023-05-09T03:36:44.493Z,10.30
2023-05-09T03:39:13.211Z,10.20
2023-05-09T03:41:44.128Z,10.20
2023-05-09T03:44:11.039Z,10.20
2023-05-09T03:46:37.815Z,10.10
2023-05-09T03:49:05.311Z,10.10
2023-05-09T03:51:32.606Z,10.10
2023-05-09T03:54:01.569Z,10.10
2023-05-09T03:56:29.205Z,10.20
2023-05-09T03:58:56.441Z,10.20
2023-05-09T04:01:25.133Z,10.20
2023-05-09T04:03:52.268Z,10.20
2023-05-09T04:06:21.100Z,10.20
2023-05-09T04:08:48.349Z,10.20
2023-05-09T04:11:15.285Z,10.30
2023-05-09T04:13:45.025Z,10.20
2023-05-09T04:16:22.653Z,10.30
2023-05-09T04:18:49.766Z,10.30
2023-05-09T04:21:16.516Z,10.30
2023-05-09T04:23:46.588Z,10.40
2023-05-09T04:26:15.596Z,10.40
2023-05-09T04:28:45.228Z,10.50
2023-05-09T04:31:14.814Z,10.60
2023-05-09T04:33:44.683Z,10.60
2023-05-09T04:36:12.258Z,10.70
2023-05-09T04:38:39.441Z,10.70
2023-05-09T04:41:09.837Z,10.80
2023-05-09T04:43:36.562Z,10.80
2023-05-09T04:46:03.485Z,10.90
2023-05-09T04:48:32.211Z,11.00
2023-05-09T04:50:58.961Z,11.20
2023-05-09T04:53:26.670Z,11.20
2023-05-09T04:55:54.564Z,11.30
2023-05-09T04:58:21.446Z,11.40
2023-05-09T05:00:48.401Z,11.60
2023-05-09T05:03:17.921Z,11.70
2023-05-09T05:05:45.370Z,11.90
2023-05-09T05:08:12.310Z,12.00
2023-05-09T05:10:41.367Z,12.20
2023-05-09T05:13:11.311Z,12.30
2023-05-09T05:15:43.243Z,12.40
2023-05-09T05:18:10.763Z,12.50
2023-05-09T05:20:40.920Z,12.50
2023-05-09T05:23:08.454Z,12.50
2023-05-09T05:25:35.581Z,12.50
2023-05-09T05:28:02.657Z,12.50
2023-05-09T05:30:34.012Z,12.60
2023-05-09T05:33:02.312Z,12.60
2023-05-09T05:35:29.403Z,12.70
2023-05-09T05:37:57.109Z,12.70
2023-05-09T05:40:24.838Z,12.80
2023-05-09T05:42:53.150Z,12.80
2023-05-09T05:45:20.088Z,12.80
2023-05-09T05:47:50.427Z,12.90
2023-05-09T05:50:18.676Z,12.90
2023-05-09T05:52:45.605Z,13.00
2023-05-09T05:55:15.377Z,13.00
2023-05-09T05:57:42.491Z,13.10
2023-05-09T06:00:14.617Z,13.20
2023-05-09T06:02:46.087Z,13.30
2023-05-09T06:05:20.180Z,13.40
2023-05-09T06:07:47.312Z,13.50
2023-05-09T06:10:15.949Z,13.50
2023-05-09T06:12:44.387Z,13.70
2023-05-09T06:15:11.706Z,13.80
2023-05-09T06:17:41.512Z,13.90
2023-05-09T06:20:08.630Z,14.10
2023-05-09T06:22:35.588Z,14.10
2023-05-09T06:25:02.618Z,14.20
2023-05-09T06:27:29.361Z,14.20
2023-05-09T06:29:56.443Z,14.40
2023-05-09T06:32:24.964Z,14.50
2023-05-09T06:34:52.649Z,14.70
2023-05-09T06:37:19.528Z,14.90
2023-05-09T06:39:46.247Z,15.20
2023-05-09T06:42:12.977Z,15.40
2023-05-09T06:44:39.936Z,15.60
2023-05-09T06:47:06.743Z,15.80
2023-05-09T06:49:33.544Z,16.10
2023-05-09T06:52:00.274Z,16.30
2023-05-09T06:54:27.013Z,16.60
2023-05-09T06:56:53.966Z,17.00
2023-05-09T06:59:20.737Z,17.40
2023-05-09T07:01:47.544Z,17.70
2023-05-09T07:04:14.339Z,18.00
2023-05-09T07:06:41.860Z,18.40
2023-05-09T07:09:08.868Z,18.60
2023-05-09T07:11:36.532Z,18.80
2023-05-09T07:14:04.462Z,19.10
2023-05-09T07:16:31.518Z,19.60
2023-05-09T07:18:58.383Z,19.90
2023-05-09T07:21:25.134Z,20.40
2023-05-09T07:23:51.878Z,20.80
2023-05-09T07:26:18.638Z,20.80
2023-05-09T07:28:45.486Z,21.40
2023-05-09T07:31:12.399Z,22.40
2023-05-09T07:33:39.230Z,23.30
2023-05-09T07:36:06.240Z,24.00
2023-05-09T07:38:32.987Z,24.70
2023-05-09T07:40:59.714Z,25.50
2023-05-09T07:43:26.658Z,26.10
2023-05-09T07:45:53.536Z,26.60
2023-05-09T07:48:20.391Z,27.00
2023-05-09T07:50:47.118Z,27.40
2023-05-09T07:53:14.061Z,27.70
2023-05-09T07:55:40.877Z,27.70
2023-05-09T07:58:07.806Z,28.00
2023-05-09T08:00:34.559Z,28.40
2023-05-09T08:03:01.556Z,28.80
2023-05-09T08:05:28.423Z,29.40
2023-05-09T08:07:55.205Z,29.90
2023-05-09T08:10:22.970Z,30.00
2023-05-09T08:12:49.853Z,30.20
2023-05-09T08:15:18.628Z,30.30
2023-05-09T08:17:45.446Z,30.10
2023-05-09T08:20:13.217Z,30.30
2023-05-09T08:22:40.637Z,30.60
2023-05-09T08:25:08.544Z,31.30
2023-05-09T08:27:35.417Z,31.70
2023-05-09T08:30:02.693Z,32.00
2023-05-09T08:32:29.633Z,32.20
2023-05-09T08:34:56.399Z,32.60
2023-05-09T08:37:23.213Z,32.60
2023-05-09T08:39:49.966Z,32.60
2023-05-09T08:42:20.594Z,32.30
2023-05-09T08:44:47.404Z,32.30
2023-05-09T08:47:15.446Z,32.20
2023-05-09T08:49:42.844Z,32.40
2023-05-09T08:52:11.372Z,32.30
2023-05-09T08:54:38.908Z,32.50
2023-05-09T08:57:05.909Z,32.40
2023-05-09T08:59:36.729Z,32.40
2023-05-09T09:02:07.216Z,32.20
2023-05-09T09:04:34.491Z,32.10
2023-05-09T09:07:04.047Z,32.00
2023-05-09T09:09:31.532Z,31.90
2023-05-09T09:11:58.954Z,32.00
2023-05-09T09:14:27.497Z,32.20
2023-05-09T09:16:57.162Z,32.50
2023-05-09T09:19:29.948Z,32.60
2023-05-09T09:22:00.130Z,32.70
2023-05-09T09:24:26.929Z,32.40
2023-05-09T09:26:53.801Z,32.20
2023-05-09T09:32:06.930Z,32.10
2023-05-09T09:34:33.970Z,32.40
2023-05-09T09:37:00.707Z,32.50
2023-05-09T09:39:27.417Z,32.50
2023-05-09T09:41:54.295Z,32.30
2023-05-09T09:44:22.404Z,32.40
2023-05-09T09:46:54.627Z,32.40
2023-05-09T09:49:26.819Z,32.60
2023-05-09T09:51:58.740Z,32.60
2023-05-09T09:54:29.180Z,33.00
2023-05-09T09:56:56.919Z,33.10
2023-05-09T09:59:26.488Z,33.10
2023-05-09T10:02:07.430Z,32.80
2023-05-09T10:04:39.328Z,32.40
2023-05-09T10:07:08.365Z,32.30
2023-05-09T10:09:37.739Z,32.20
2023-05-09T10:12:06.452Z,32.10
2023-05-09T10:14:35.594Z,31.90
2023-05-09T10:17:04.954Z,32.10
2023-05-09T10:19:32.257Z,32.50
2023-05-09T10:22:08.080Z,33.20
2023-05-09T10:24:44.817Z,33.60
2023-05-09T10:27:13.047Z,33.80
2023-05-09T10:29:51.813Z,33.70
2023-05-09T10:32:25.942Z,33.80
2023-05-09T10:34:58.153Z,34.00
2023-05-09T10:37:25.546Z,34.00
2023-05-09T10:39:54.029Z,33.90
2023-05-09T10:42:23.042Z,34.00
2023-05-09T10:44:50.081Z,34.10
2023-05-09T10:47:17.702Z,34.10
2023-05-09T10:49:45.840Z,34.00
2023-05-09T10:52:12.612Z,34.00
2023-05-09T10:54:39.383Z,34.10
2023-05-09T10:57:09.346Z,34.40
2023-05-09T10:59:37.834Z,34.40
2023-05-09T11:02:05.581Z,34.40
2023-05-09T11:04:32.727Z,34.10
2023-05-09T11:07:00.816Z,33.80
2023-05-09T11:09:33.487Z,34.10
2023-05-09T11:12:11.626Z,33.90
2023-05-09T11:14:45.884Z,33.60
2023-05-09T11:17:29.814Z,33.30
2023-05-09T11:20:09.738Z,33.50
2023-05-09T11:22:44.630Z,33.50
2023-05-09T11:25:13.801Z,33.30
2023-05-09T11:27:45.134Z,33.10
2023-05-09T11:30:16.899Z,33.20
2023-05-09T11:32:45.505Z,33.10
2023-05-09T11:35:18.301Z,33.20
2023-05-09T11:37:50.597Z,33.10
2023-05-09T11:40:20.191Z,33.20
2023-05-09T11:42:58.079Z,33.40
2023-05-09T11:45:31.070Z,33.40
2023-05-09T11:47:58.250Z,33.30
2023-05-09T11:50:25.481Z,33.40
2023-05-09T11:52:53.392Z,33.00
2023-05-09T11:55:22.789Z,32.60
2023-05-09T11:57:51.896Z,32.40
2023-05-09T12:00:27.922Z,32.40
2023-05-09T12:02:55.720Z,32.30
2023-05-09T12:05:23.672Z,32.10
2023-05-09T12:07:50.748Z,31.80
2023-05-09T12:10:21.788Z,31.60
2023-05-09T12:12:50.428Z,31.30
2023-05-09T12:15:18.058Z,31.40
2023-05-09T12:17:47.281Z,31.40
2023-05-09T12:20:15.730Z,31.50
2023-05-09T12:22:43.752Z,31.50
2023-05-09T12:25:12.176Z,31.30
2023-05-09T12:27:40.498Z,31.20
2023-05-09T12:30:10.134Z,31.30
2023-05-09T12:32:39.718Z,31.40
2023-05-09T12:35:10.872Z,31.20
2023-05-09T12:37:38.622Z,30.80
2023-05-09T12:40:08.586Z,30.50
2023-05-09T12:42:36.029Z,30.20
2023-05-09T12:45:04.227Z,29.90
2023-05-09T12:47:32.467Z,29.50
2023-05-09T12:50:04.232Z,29.20
2023-05-09T12:53:02.892Z,28.80
2023-05-09T12:55:31.758Z,28.60
2023-05-09T12:58:01.614Z,28.60
2023-05-09T13:00:30.799Z,28.40
2023-05-09T13:02:57.923Z,28.20
2023-05-09T13:05:24.841Z,27.90
2023-05-09T13:07:52.637Z,27.60
2023-05-09T13:10:24.199Z,27.20
2023-05-09T13:12:52.051Z,26.90
2023-05-09T13:15:23.305Z,26.50
2023-05-09T13:17:51.911Z,26.10
2023-05-09T13:20:19.796Z,25.70
2023-05-09T13:22:47.428Z,25.40
2023-05-09T13:25:14.421Z,25.30
2023-05-09T13:27:41.249Z,25.20
2023-05-09T13:30:08.535Z,25.10
2023-05-09T13:32:36.488Z,25.00
2023-05-09T13:35:06.836Z,24.80
2023-05-09T13:37:36.777Z,24.60
2023-05-09T13:40:04.339Z,24.50
2023-05-09T13:42:31.155Z,24.30
2023-05-09T13:44:58.017Z,24.20
2023-05-09T13:47:24.780Z,24.10
2023-05-09T13:49:52.230Z,23.90
2023-05-09T13:52:19.706Z,23.80
2023-05-09T13:54:46.530Z,23.80
2023-05-09T13:57:13.276Z,23.80
2023-05-09T13:59:41.524Z,23.80
2023-05-09T14:02:10.756Z,23.70
2023-05-09T14:04:37.626Z,23.70
2023-05-09T14:07:04.916Z,23.80
2023-05-09T14:09:31.733Z,23.80
2023-05-09T14:11:58.837Z,23.70
2023-05-09T14:14:25.870Z,23.60
2023-05-09T14:16:54.017Z,23.50
2023-05-09T14:19:21.518Z,23.40
2023-05-09T14:21:48.349Z,23.40
2023-05-09T14:24:16.340Z,23.30
2023-05-09T14:26:43.936Z,23.20
2023-05-09T14:29:11.194Z,23.20
2023-05-09T14:31:38.285Z,23.20
2023-05-09T14:34:06.508Z,23.20
2023-05-09T14:36:33.598Z,23.20
2023-05-09T14:39:00.334Z,23.10
2023-05-09T14:41:27.448Z,23.20
2023-05-09T14:43:54.146Z,23.20
2023-05-09T14:46:21.552Z,23.20
2023-05-09T14:48:48.520Z,23.10
2023-05-09T14:51:15.458Z,23.20
2023-05-09T14:53:42.272Z,23.20
2023-05-09T14:56:11.313Z,23.20
2023-05-09T14:58:38.550Z,23.20
2023-05-09T15:01:05.494Z,23.30
2023-05-09T15:03:32.580Z,23.30
2023-05-09T15:05:59.609Z,23.20
2023-05-09T15:08:26.801Z,23.20
2023-05-09T15:10:53.687Z,23.10
2023-05-09T15:13:21.052Z,23.20
2023-05-09T15:15:48.317Z,23.10
2023-05-09T15:18:17.087Z,23.10
2023-05-09T15:20:44.670Z,23.00
2023-05-09T15:23:13.135Z,23.00
2023-05-09T15:25:42.894Z,23.00
2023-05-09T15:28:09.609Z,23.00
2023-05-09T15:30:38.246Z,23.00
2023-05-09T15:33:06.281Z,23.00
2023-05-09T15:35:33.417Z,22.90
2023-05-09T15:38:00.163Z,22.90
2023-05-09T15:40:28.334Z,22.90
2023-05-09T15:42:55.269Z,22.80
2023-05-09T15:45:22.227Z,22.80
2023-05-09T15:47:49.059Z,22.70
2023-05-09T15:50:16.227Z,22.70
2023-05-09T15:52:43.355Z,22.70
2023-05-09T15:55:10.664Z,22.70
2023-05-09T15:57:37.537Z,22.60
2023-05-09T16:00:05.971Z,22.60
2023-05-09T16:02:39.423Z,22.60
2023-05-09T16:05:06.751Z,22.60
2023-05-09T16:07:35.495Z,22.60
2023-05-09T16:10:02.958Z,22.60
2023-05-09T16:12:32.642Z,22.60
2023-05-09T16:14:59.674Z,22.60
2023-05-09T16:17:26.464Z,22.70
2023-05-09T16:19:55.639Z,22.70
2023-05-09T16:22:22.580Z,22.70
2023-05-09T16:24:49.368Z,22.60
2023-05-09T16:27:16.459Z,22.60
2023-05-09T16:29:43.353Z,22.60
2023-05-09T16:32:10.735Z,22.50
2023-05-09T16:34:37.665Z,22.50
2023-05-09T16:37:04.426Z,22.50
2023-05-09T16:39:31.418Z,22.40
2023-05-09T16:41:58.617Z,22.40
2023-05-09T16:44:26.312Z,22.40
2023-05-09T16:46:53.248Z,22.40
2023-05-09T16:49:20.381Z,22.40
2023-05-09T16:51:47.307Z,22.30
2023-05-09T16:54:14.256Z,22.30
2023-05-09T16:56:41.636Z,22.30
2023-05-09T16:59:08.479Z,22.20
2023-05-09T17:01:35.419Z,22.20
2023-05-09T17:04:02.778Z,22.10
2023-05-09T17:06:29.783Z,22.10
2023-05-09T17:08:56.548Z,22.00
2023-05-09T17:11:23.441Z,21.90
2023-05-09T17:13:50.202Z,21.80
2023-05-09T17:16:17.038Z,21.70
2023-05-09T17:18:47.202Z,21.70
2023-05-09T17:21:17.006Z,21.60
2023-05-09T17:23:43.754Z,21.50
2023-05-09T17:26:10.727Z,21.50
2023-05-09T17:28:37.595Z,21.40
2023-05-09T17:31:04.577Z,21.30
2023-05-09T17:33:31.538Z,21.20
2023-05-09T17:36:00.040Z,21.20
2023-05-09T17:38:26.919Z,21.10
2023-05-09T17:40:53.766Z,21.00
2023-05-09T17:43:21.697Z,20.90
2023-05-09T17:45:48.652Z,20.80
2023-05-09T17:48:15.917Z,20.80
2023-05-09T17:50:43.846Z,20.70
2023-05-09T17:53:10.609Z,20.60
2023-05-09T17:55:37.455Z,20.50
2023-05-09T17:58:04.253Z,20.50
2023-05-09T18:00:31.230Z,20.40
2023-05-09T18:03:00.651Z,20.30
2023-05-09T18:05:27.757Z,20.20
2023-05-09T18:07:54.584Z,20.10
2023-05-09T18:10:21.503Z,20.00
2023-05-09T18:12:48.489Z,20.00
2023-05-09T18:15:15.436Z,19.90
2023-05-09T18:17:42.559Z,19.80
2023-05-09T18:20:09.826Z,19.80
2023-05-09T18:22:37.276Z,19.70
2023-05-09T18:25:04.418Z,19.70
2023-05-09T18:27:31.136Z,19.60
2023-05-09T18:29:57.823Z,19.50
2023-05-09T18:32:24.986Z,19.50
2023-05-09T18:34:52.293Z,19.40
2023-05-09T18:37:19.267Z,19.40
2023-05-09T18:39:46.018Z,19.30
2023-05-09T18:42:15.929Z,19.30
2023-05-09T18:44:43.204Z,19.20
2023-05-09T18:47:10.170Z,19.20
2023-05-09T18:49:37.906Z,19.10
2023-05-09T18:52:04.886Z,19.10
2023-05-09T18:54:31.663Z,19.00
2023-05-09T18:56:58.525Z,19.00
2023-05-09T18:59:25.304Z,18.90
2023-05-09T19:01:52.218Z,18.90
2023-05-09T19:04:19.831Z,18.80
2023-05-09T19:06:47.453Z,18.80
2023-05-09T19:09:14.246Z,18.70
2023-05-09T19:11:41.258Z,18.70
2023-05-09T19:14:08.106Z,18.60
2023-05-09T19:16:35.005Z,18.50
2023-05-09T19:19:01.787Z,18.40
2023-05-09T19:21:28.942Z,18.40
2023-05-09T19:23:55.663Z,18.30
2023-05-09T19:26:22.436Z,18.30
2023-05-09T19:28:49.272Z,18.20
2023-05-09T19:31:16.358Z,18.20
2023-05-09T19:33:45.476Z,18.10
2023-05-09T19:36:12.766Z,18.00
2023-05-09T19:38:39.776Z,17.90
2023-05-09T19:41:06.595Z,17.80
2023-05-09T19:43:33.380Z,17.80
2023-05-09T19:46:00.251Z,17.70
2023-05-09T19:48:27.012Z,17.70
2023-05-09T19:51:00.715Z,17.60
2023-05-09T19:53:27.581Z,17.60
2023-05-09T19:55:54.344Z,17.50
2023-05-09T19:58:21.074Z,17.50
2023-05-09T20:00:48.569Z,17.40
2023-05-09T20:03:15.526Z,17.40
2023-05-09T20:05:42.557Z,17.40
2023-05-09T20:08:09.484Z,17.40
2023-05-09T20:10:36.409Z,17.30
2023-05-09T20:13:04.397Z,17.30
2023-05-09T20:15:31.293Z,17.30
2023-05-09T20:17:58.554Z,17.30
2023-05-09T20:20:25.423Z,17.20
2023-05-09T20:22:52.244Z,17.30
2023-05-09T20:25:19.091Z,17.20
2023-05-09T20:27:45.849Z,17.20
2023-05-09T20:30:13.128Z,17.20
2023-05-09T20:32:40.073Z,17.20
2023-05-09T20:35:07.454Z,17.10
2023-05-09T20:37:34.304Z,17.10
2023-05-09T20:40:01.990Z,17.10
2023-05-09T20:42:28.902Z,17.10
2023-05-09T20:44:55.648Z,17.00
2023-05-09T20:47:22.752Z,17.00
2023-05-09T20:49:49.522Z,17.00
2023-05-09T20:52:16.344Z,17.00
2023-05-09T20:54:43.144Z,17.00
2023-05-09T20:57:09.885Z,17.00
2023-05-09T20:59:36.708Z,17.00
2023-05-09T21:02:03.448Z,17.00
2023-05-09T21:04:30.394Z,16.90
2023-05-09T21:06:57.123Z,16.90
2023-05-09T21:09:24.131Z,16.90
2023-05-09T21:11:50.849Z,16.90
2023-05-09T21:14:17.647Z,16.90
2023-05-09T21:16:44.496Z,16.90
2023-05-09T21:19:11.342Z,16.90
2023-05-09T21:21:38.083Z,16.90
2023-05-09T21:24:08.992Z,16.90
2023-05-09T21:26:36.399Z,16.80
2023-05-09T21:29:03.498Z,16.80
2023-05-09T21:31:30.351Z,16.90
2023-05-09T21:33:59.095Z,16.80
2023-05-09T21:36:26.095Z,16.80
2023-05-09T21:38:52.950Z,16.80
2023-05-09T21:41:21.843Z,16.80
2023-05-09T21:43:48.743Z,16.80
2023-05-09T21:46:15.583Z,16.80
2023-05-09T21:48:42.471Z,16.70
2023-05-09T21:51:09.220Z,16.70
2023-05-09T21:53:36.216Z,16.70
2023-05-09T21:56:03.004Z,16.70
2023-05-09T21:58:29.797Z,16.70
2023-05-09T22:00:56.536Z,16.80
2023-05-09T22:03:23.385Z,16.80
2023-05-09T22:05:50.291Z,16.80
2023-05-09T22:08:17.095Z,16.80
2023-05-09T22:10:43.948Z,16.80
2023-05-09T22:13:10.848Z,16.80
2023-05-09T22:15:37.633Z,16.80
2023-05-09T22:18:04.570Z,16.80
2023-05-09T22:20:31.329Z,16.90
2023-05-09T22:22:58.054Z,16.90
2023-05-09T22:25:24.829Z,16.80
2023-05-09T22:27:51.643Z,16.80
2023-05-09T22:30:18.579Z,16.80
2023-05-09T22:32:45.883Z,16.80
2023-05-09T22:35:12.673Z,16.80
2023-05-09T22:37:39.577Z,16.80
2023-05-09T22:40:06.993Z,16.80
2023-05-09T22:42:34.700Z,16.70
2023-05-09T22:45:01.885Z,16.70
2023-05-09T22:47:28.735Z,16.70
2023-05-09T22:49:55.886Z,16.60
2023-05-09T22:52:22.639Z,16.60
2023-05-09T22:54:49.441Z,16.50
2023-05-09T22:57:17.996Z,16.50
2023-05-09T22:59:45.192Z,16.50
2023-05-09T23:02:12.487Z,16.50
2023-05-09T23:04:39.277Z,16.60
2023-05-09T23:07:06.157Z,16.50
2023-05-09T23:09:33.107Z,16.60
2023-05-09T23:12:01.185Z,16.60
2023-05-09T23:14:28.214Z,16.50
2023-05-09T23:16:56.048Z,16.50
2023-05-09T23:19:23.129Z,16.50
2023-05-09T23:21:50.517Z,16.50
2023-05-09T23:24:17.474Z,16.50
2023-05-09T23:26:44.478Z,16.50
2023-05-09T23:29:11.545Z,16.50
2023-05-09T23:31:38.428Z,16.50
2023-05-09T23:34:06.043Z,16.50
2023-05-09T23:36:33.258Z,16.50
2023-05-09T23:39:00.010Z,16.50
2023-05-09T23:41:26.789Z,16.60
2023-05-09T23:43:53.533Z,16.60
2023-05-09T23:46:21.547Z,16.60
2023-05-09T23:48:48.281Z,16.60
2023-05-09T23:51:15.629Z,16.60
2023-05-09T23:53:42.440Z,16.50
2023-05-09T23:56:09.241Z,16.50
2023-05-09T23:58:36.173Z,16.40
